createdAt,value
2022-12-23T00:01:03.782Z,9.50
2022-12-23T00:03:54.071Z,11.18
2022-12-23T00:06:42.648Z,7.22
2022-12-23T00:09:34.343Z,7.72
2022-12-23T00:12:41.684Z,9.63
2022-12-23T00:15:31.770Z,8.10
2022-12-23T00:18:20.639Z,9.05
2022-12-23T00:21:18.852Z,10.55
2022-12-23T00:33:50.495Z,11.85
2022-12-23T00:36:38.553Z,8.30
2022-12-23T00:39:54.738Z,9.15
2022-12-23T00:42:56.066Z,10.85
2022-12-23T00:45:48.263Z,7.57
2022-12-23T00:48:59.532Z,7.65
2022-12-23T00:51:52.782Z,7.57
2022-12-23T00:55:05.432Z,6.60
2022-12-23T00:58:01.255Z,4.75
2022-12-23T01:01:18.084Z,6.20
2022-12-23T01:04:26.009Z,4.60
2022-12-23T01:07:15.167Z,7.60
2022-12-23T01:10:03.299Z,6.75
2022-12-23T01:12:52.671Z,7.03
2022-12-23T01:15:42.255Z,8.05
2022-12-23T01:18:34.689Z,4.75
2022-12-23T01:21:27.779Z,8.45
2022-12-23T01:24:30.900Z,6.55
2022-12-23T01:27:24.475Z,4.18
2022-12-23T01:30:18.101Z,3.78
2022-12-23T01:43:23.111Z,3.50
2022-12-23T01:46:18.559Z,2.20
2022-12-23T01:49:19.639Z,2.33
2022-12-23T01:52:14.710Z,2.45
2022-12-23T01:55:04.504Z,2.85
2022-12-23T01:58:01.755Z,5.85
2022-12-23T02:01:17.175Z,3.05
2022-12-23T02:04:10.794Z,5.72
2022-12-23T02:07:18.557Z,15.30
2022-12-23T02:10:09.518Z,12.90
2022-12-23T02:13:15.479Z,8.70
2022-12-23T02:16:43.915Z,6.88
2022-12-23T02:20:06.432Z,5.40
2022-12-23T02:23:01.376Z,4.07
2022-12-23T02:26:34.922Z,7.07
2022-12-23T02:30:01.797Z,6.30
2022-12-23T02:32:56.742Z,3.35
2022-12-23T02:35:59.375Z,5.55
2022-12-23T02:42:45.852Z,3.38
2022-12-23T02:46:11.711Z,4.72
2022-12-23T02:49:25.880Z,6.38
2022-12-23T02:52:20.419Z,3.47
2022-12-23T03:01:39.873Z,3.58
2022-12-23T03:04:28.584Z,4.20
2022-12-23T03:11:18.961Z,3.80
2022-12-23T03:14:20.037Z,4.72
2022-12-23T03:17:32.372Z,6.60
2022-12-23T03:20:37.557Z,5.60
2022-12-23T03:23:34.981Z,5.32
2022-12-23T03:26:27.810Z,4.90
2022-12-23T03:29:21.784Z,5.57
2022-12-23T03:32:12.287Z,5.53
2022-12-23T03:35:02.526Z,4.63
2022-12-23T03:37:53.448Z,5.93
2022-12-23T03:40:47.969Z,6.18
2022-12-23T03:43:50.886Z,5.10
2022-12-23T03:46:42.760Z,6.35
2022-12-23T03:49:35.166Z,5.90
2022-12-23T03:52:30.881Z,7.22
2022-12-23T03:55:22.238Z,7.00
2022-12-23T04:01:39.404Z,6.18
2022-12-23T04:04:45.486Z,6.82
2022-12-23T04:07:55.883Z,8.10
2022-12-23T04:10:43.247Z,6.60
2022-12-23T04:13:31.856Z,7.43
2022-12-23T04:16:20.242Z,8.73
2022-12-23T04:19:08.764Z,8.02
2022-12-23T04:21:59.828Z,7.20
2022-12-23T04:24:47.255Z,8.60
2022-12-23T04:27:34.775Z,6.65
2022-12-23T04:30:28.047Z,7.10
2022-12-23T04:33:20.897Z,6.82
2022-12-23T04:36:13.867Z,6.95
2022-12-23T04:39:04.916Z,8.45
2022-12-23T04:41:54.145Z,7.22
2022-12-23T04:44:41.743Z,7.22
2022-12-23T04:47:29.108Z,6.68
2022-12-23T04:50:18.669Z,8.48
2022-12-23T04:53:05.865Z,6.53
2022-12-23T04:55:52.992Z,5.20
2022-12-23T04:58:42.836Z,5.43
2022-12-23T05:01:30.262Z,5.80
2022-12-23T05:04:17.809Z,6.38
2022-12-23T05:07:05.080Z,7.75
2022-12-23T05:09:52.277Z,6.25
2022-12-23T05:12:39.494Z,8.77
2022-12-23T05:15:26.644Z,6.78
2022-12-23T05:18:13.792Z,6.90
2022-12-23T05:21:01.081Z,4.75
2022-12-23T05:23:48.331Z,5.13
2022-12-23T05:26:35.544Z,5.93
2022-12-23T05:29:22.808Z,5.28
2022-12-23T05:32:10.273Z,5.50
2022-12-23T05:34:57.565Z,5.75
2022-12-23T05:37:44.740Z,6.47
2022-12-23T05:40:32.986Z,11.25
2022-12-23T05:43:21.717Z,4.93
2022-12-23T05:46:08.877Z,6.40
2022-12-23T05:48:56.065Z,4.75
2022-12-23T05:51:43.182Z,7.63
2022-12-23T05:54:30.415Z,5.15
2022-12-23T05:57:17.552Z,3.40
2022-12-23T06:00:05.490Z,3.72
2022-12-23T06:02:59.660Z,3.63
2022-12-23T06:05:50.723Z,3.78
2022-12-23T06:08:37.930Z,3.85
2022-12-23T06:11:25.204Z,4.43
2022-12-23T06:14:13.042Z,4.15
2022-12-23T06:17:00.290Z,4.07
2022-12-23T06:19:47.638Z,5.53
2022-12-23T06:22:34.972Z,6.80
2022-12-23T06:25:22.331Z,7.13
2022-12-23T06:28:09.534Z,9.38
2022-12-23T06:30:57.376Z,7.00
2022-12-23T06:33:44.587Z,6.95
2022-12-23T06:36:31.809Z,7.20
2022-12-23T06:39:19.011Z,6.15
2022-12-23T06:42:06.301Z,5.32
2022-12-23T06:44:53.467Z,5.13
2022-12-23T06:47:40.664Z,5.22
2022-12-23T06:50:27.955Z,6.70
2022-12-23T06:53:15.237Z,5.00
2022-12-23T06:56:03.857Z,6.38
2022-12-23T06:58:52.701Z,6.30
2022-12-23T07:01:40.738Z,4.72
2022-12-23T07:04:28.091Z,5.75
2022-12-23T07:07:15.287Z,5.70
2022-12-23T07:10:02.657Z,3.97
2022-12-23T07:12:51.086Z,4.07
2022-12-23T07:15:39.337Z,4.30
2022-12-23T07:18:26.549Z,3.10
2022-12-23T07:21:22.933Z,2.67
2022-12-23T07:24:15.426Z,3.17
2022-12-23T07:27:02.611Z,3.80
2022-12-23T07:29:49.967Z,5.22
2022-12-23T07:32:37.244Z,4.65
2022-12-23T07:35:24.702Z,2.30
2022-12-23T07:38:11.966Z,1.58
2022-12-23T07:40:59.305Z,2.33
2022-12-23T07:43:47.152Z,2.65
2022-12-23T07:46:34.906Z,2.97
2022-12-23T07:49:22.220Z,2.13
2022-12-23T07:52:09.417Z,2.38
2022-12-23T07:54:57.546Z,7.55
2022-12-23T07:57:48.772Z,2.38
2022-12-23T08:00:35.827Z,1.70
2022-12-23T08:03:23.081Z,5.10
2022-12-23T08:06:12.844Z,1.42
2022-12-23T08:09:00.116Z,3.00
2022-12-23T08:11:47.376Z,5.22
2022-12-23T08:14:34.708Z,4.45
2022-12-23T08:17:25.856Z,4.65
2022-12-23T08:20:13.285Z,6.22
2022-12-23T08:23:00.473Z,3.75
2022-12-23T08:25:48.176Z,4.88
2022-12-23T08:28:36.434Z,4.18
2022-12-23T08:31:26.564Z,4.68
2022-12-23T08:37:28.816Z,4.97
2022-12-23T08:40:15.940Z,6.35
2022-12-23T08:43:03.014Z,6.10
2022-12-23T08:45:50.372Z,6.53
2022-12-23T08:48:39.630Z,5.07
2022-12-23T08:51:29.161Z,6.57
2022-12-23T09:07:24.645Z,4.60
2022-12-23T09:10:11.706Z,7.18
2022-12-23T09:12:58.783Z,5.55
2022-12-23T09:15:46.043Z,5.82
2022-12-23T09:18:34.098Z,5.13
2022-12-23T09:24:45.266Z,4.72
2022-12-23T09:27:32.434Z,6.25
2022-12-23T09:30:19.583Z,6.90
2022-12-23T09:33:06.760Z,5.78
2022-12-23T09:35:53.827Z,7.80
2022-12-23T09:38:40.915Z,5.03
2022-12-23T09:41:37.114Z,6.38
2022-12-23T09:44:36.526Z,5.90
2022-12-23T09:47:26.674Z,6.97
2022-12-23T09:50:26.600Z,6.03
2022-12-23T09:53:18.453Z,6.13
2022-12-23T09:56:19.307Z,5.97
2022-12-23T09:59:43.154Z,5.25
2022-12-23T10:02:31.360Z,5.65
2022-12-23T10:05:32.788Z,5.00
2022-12-23T10:11:25.585Z,5.10
2022-12-23T10:14:28.652Z,4.43
2022-12-23T10:17:41.611Z,3.13
2022-12-23T10:20:41.613Z,3.92
2022-12-23T10:23:36.582Z,3.60
2022-12-23T10:26:34.146Z,6.90
2022-12-23T10:29:27.000Z,3.83
2022-12-23T10:32:17.350Z,3.78
2022-12-23T10:35:37.241Z,3.22
2022-12-23T10:38:58.071Z,3.42
2022-12-23T10:41:53.964Z,2.30
2022-12-23T10:45:25.995Z,1.75
2022-12-23T10:48:47.534Z,3.22
2022-12-23T10:51:45.061Z,2.10
2022-12-23T10:54:36.887Z,2.40
2022-12-23T10:57:25.917Z,2.50
2022-12-23T11:49:58.761Z,6.53
2022-12-23T11:52:57.027Z,8.73
2022-12-23T11:55:56.881Z,7.50
2022-12-23T11:59:10.746Z,8.50
2022-12-23T12:02:01.657Z,11.18
2022-12-23T12:07:46.273Z,10.25
2022-12-23T12:41:26.387Z,5.65
2022-12-23T12:54:05.543Z,3.90
2022-12-23T13:14:01.720Z,3.05
2022-12-23T13:20:35.626Z,2.85
2022-12-23T13:58:24.886Z,3.47
2022-12-23T14:01:15.655Z,3.28
2022-12-23T14:04:31.099Z,2.50
2022-12-23T14:07:21.478Z,1.70
2022-12-23T14:10:12.557Z,1.95
2022-12-23T14:16:08.886Z,1.98
2022-12-23T14:19:22.243Z,2.10
2022-12-23T14:22:31.425Z,2.75
2022-12-23T14:25:28.019Z,3.38
2022-12-23T14:28:42.634Z,3.72
2022-12-23T14:31:40.001Z,5.20
2022-12-23T14:34:31.779Z,4.25
2022-12-23T14:37:25.369Z,5.50
2022-12-23T14:40:37.639Z,5.13
2022-12-23T14:43:46.568Z,5.80
2022-12-23T14:46:36.895Z,5.15
2022-12-23T14:49:45.064Z,3.92
2022-12-23T14:52:39.314Z,2.83
2022-12-23T14:55:32.678Z,3.55
2022-12-23T14:58:27.011Z,2.60
2022-12-23T15:01:36.326Z,3.55
2022-12-23T15:04:42.896Z,2.58
2022-12-23T15:07:41.050Z,2.70
2022-12-23T15:10:37.573Z,2.33
2022-12-23T15:13:27.631Z,3.28
2022-12-23T15:16:18.270Z,2.53
2022-12-23T15:19:21.204Z,2.65
2022-12-23T15:22:21.198Z,3.53
2022-12-23T15:25:33.786Z,2.50
2022-12-23T15:28:24.143Z,3.78
2022-12-23T15:31:42.850Z,2.63
2022-12-23T15:34:33.531Z,3.78
2022-12-23T15:37:33.070Z,4.00
2022-12-23T15:47:00.556Z,3.20
2022-12-23T15:49:47.929Z,4.63
2022-12-23T15:52:35.871Z,3.58
2022-12-23T15:55:28.055Z,3.35
2022-12-23T15:58:24.206Z,3.72
2022-12-23T16:01:22.070Z,3.17
2022-12-23T16:04:20.599Z,3.38
2022-12-23T16:07:28.105Z,5.95
2022-12-23T16:10:20.763Z,3.92
2022-12-23T16:13:17.688Z,3.85
2022-12-23T16:30:27.690Z,3.25
2022-12-23T16:33:43.547Z,3.50
2022-12-23T16:47:16.271Z,2.78
2022-12-23T16:50:03.766Z,2.67
2022-12-23T16:52:50.910Z,2.95
2022-12-23T16:55:38.087Z,1.75
2022-12-23T16:58:26.282Z,2.28
2022-12-23T17:01:16.623Z,1.42
2022-12-23T17:04:04.756Z,1.45
2022-12-23T17:06:52.262Z,1.23
2022-12-23T17:09:39.785Z,1.05
2022-12-23T17:16:16.136Z,1.65
2022-12-23T17:25:49.766Z,1.10
2022-12-23T17:28:40.398Z,3.92
2022-12-23T17:31:30.442Z,2.10
2022-12-23T17:34:26.914Z,1.43
2022-12-23T17:37:21.193Z,1.52
2022-12-23T17:40:18.575Z,1.50
2022-12-23T17:43:07.621Z,1.77
2022-12-23T17:45:57.305Z,1.92
2022-12-23T17:48:47.061Z,1.30
2022-12-23T17:51:34.942Z,1.30
2022-12-23T17:54:25.966Z,1.42
2022-12-23T17:57:26.323Z,1.60
2022-12-23T18:00:20.515Z,3.15
2022-12-23T18:03:33.249Z,2.80
2022-12-23T18:10:09.915Z,1.48
2022-12-23T18:13:01.980Z,1.60
2022-12-23T18:15:54.793Z,1.65
2022-12-23T18:18:50.753Z,1.85
2022-12-23T19:14:18.945Z,1.90
2022-12-23T19:17:10.417Z,2.83
2022-12-23T19:19:57.508Z,2.33
2022-12-23T19:32:48.674Z,3.30
2022-12-23T19:35:43.402Z,4.57
2022-12-23T19:38:41.407Z,2.53
2022-12-23T19:41:31.510Z,1.65
2022-12-23T19:44:19.794Z,3.90
2022-12-23T19:47:07.759Z,1.77
2022-12-23T19:49:55.675Z,2.60
2022-12-23T19:52:42.914Z,2.97
2022-12-23T19:55:30.270Z,2.60
2022-12-23T19:58:17.457Z,3.15
2022-12-23T20:01:26.274Z,3.10
2022-12-23T20:04:13.907Z,3.28
2022-12-23T20:07:01.648Z,3.63
2022-12-23T20:09:48.997Z,5.93
2022-12-23T20:12:36.295Z,3.72
2022-12-23T20:15:23.665Z,3.92
2022-12-23T20:18:10.919Z,2.88
2022-12-23T20:21:08.256Z,4.50
2022-12-23T20:33:26.579Z,3.88
2022-12-23T21:00:12.352Z,6.78
2022-12-23T21:03:05.305Z,4.57
2022-12-23T21:05:57.206Z,7.88
2022-12-23T21:08:45.859Z,5.82
2022-12-23T21:11:36.431Z,11.20
2022-12-23T21:14:27.415Z,6.18
2022-12-23T21:17:16.880Z,7.50
2022-12-23T21:20:08.000Z,5.47
2022-12-23T21:23:01.372Z,6.22
2022-12-23T21:25:56.506Z,7.75
2022-12-23T21:28:50.272Z,5.88
2022-12-23T21:31:46.437Z,8.73
2022-12-23T21:34:34.273Z,8.65
2022-12-23T21:37:24.431Z,6.82
2022-12-23T21:40:13.282Z,6.50
2022-12-23T21:43:06.913Z,7.35
2022-12-23T21:46:08.420Z,5.78
2022-12-23T21:48:59.220Z,6.45
2022-12-23T21:51:48.846Z,5.53
2022-12-23T21:54:37.334Z,7.35
2022-12-23T21:57:27.127Z,6.97
2022-12-23T22:00:15.123Z,5.05
2022-12-23T22:03:06.684Z,2.80
2022-12-23T22:06:09.761Z,2.80
2022-12-23T22:09:04.476Z,4.25
2022-12-23T22:11:52.538Z,5.35
2022-12-23T22:14:41.521Z,4.13
2022-12-23T22:21:02.221Z,10.10
2022-12-23T22:24:00.540Z,6.40
2022-12-23T22:26:53.347Z,8.70
2022-12-23T22:29:44.540Z,6.43
2022-12-23T22:32:42.240Z,4.93
2022-12-23T22:35:36.419Z,12.07
2022-12-23T22:38:27.573Z,8.70
2022-12-23T22:41:20.552Z,12.63
2022-12-23T22:54:32.706Z,10.00
2022-12-23T22:57:20.278Z,9.90
2022-12-23T23:00:12.242Z,11.80
2022-12-23T23:02:59.890Z,12.23
2022-12-23T23:06:06.876Z,8.82
2022-12-23T23:08:55.151Z,6.95
2022-12-23T23:11:44.278Z,13.82
2022-12-23T23:14:51.560Z,13.07
2022-12-23T23:17:39.097Z,10.48
2022-12-23T23:20:26.235Z,11.23
2022-12-23T23:23:13.419Z,9.93
2022-12-23T23:26:00.898Z,8.75
2022-12-23T23:28:48.255Z,9.93
2022-12-23T23:31:43.945Z,10.00
2022-12-23T23:34:33.220Z,9.90
2022-12-23T23:37:20.306Z,10.02
2022-12-23T23:40:08.956Z,10.73
2022-12-23T23:42:56.271Z,10.07
2022-12-23T23:45:43.463Z,14.35
2022-12-23T23:48:30.746Z,11.80
2022-12-23T23:51:18.208Z,8.75
2022-12-23T23:54:07.045Z,6.82
2022-12-23T23:56:54.470Z,13.70
2022-12-23T23:59:41.820Z,10.68
